sensor_id;sensor_type;location;lat;lon;timestamp;P1;durP1;ratioP1;P2;durP2;ratioP2
55633;SDS011;41504;53.162;6.788;2023-05-23T00:01:20;38.88;;;19.10;;
55633;SDS011;41504;53.162;6.788;2023-05-23T00:03:47;33.95;;;18.50;;
55633;SDS011;41504;53.162;6.788;2023-05-23T00:06:13;32.60;;;17.80;;
55633;SDS011;41504;53.162;6.788;2023-05-23T00:08:39;32.80;;;18.02;;
55633;SDS011;41504;53.162;6.788;2023-05-23T00:11:05;31.83;;;16.40;;
55633;SDS011;41504;53.162;6.788;2023-05-23T00:13:30;33.22;;;17.83;;
55633;SDS011;41504;53.162;6.788;2023-05-23T00:15:58;37.72;;;19.38;;
55633;SDS011;41504;53.162;6.788;2023-05-23T00:18:24;37.92;;;17.85;;
55633;SDS011;41504;53.162;6.788;2023-05-23T00:20:50;36.10;;;19.80;;
55633;SDS011;41504;53.162;6.788;2023-05-23T00:23:16;36.53;;;17.95;;
55633;SDS011;41504;53.162;6.788;2023-05-23T00:25:46;36.72;;;17.05;;
55633;SDS011;41504;53.162;6.788;2023-05-23T00:28:18;31.52;;;16.60;;
55633;SDS011;41504;53.162;6.788;2023-05-23T00:30:44;33.28;;;15.75;;
55633;SDS011;41504;53.162;6.788;2023-05-23T00:33:09;26.70;;;14.65;;
55633;SDS011;41504;53.162;6.788;2023-05-23T00:35:38;26.55;;;13.98;;
55633;SDS011;41504;53.162;6.788;2023-05-23T00:38:05;25.52;;;13.98;;
55633;SDS011;41504;53.162;6.788;2023-05-23T00:40:32;29.95;;;15.32;;
55633;SDS011;41504;53.162;6.788;2023-05-23T00:42:58;25.95;;;14.27;;
55633;SDS011;41504;53.162;6.788;2023-05-23T00:45:25;29.30;;;15.18;;
55633;SDS011;41504;53.162;6.788;2023-05-23T00:47:51;30.75;;;15.02;;
55633;SDS011;41504;53.162;6.788;2023-05-23T00:50:17;29.75;;;14.43;;
55633;SDS011;41504;53.162;6.788;2023-05-23T00:52:44;28.50;;;15.40;;
55633;SDS011;41504;53.162;6.788;2023-05-23T00:55:10;23.83;;;15.30;;
55633;SDS011;41504;53.162;6.788;2023-05-23T00:57:37;25.20;;;15.00;;
55633;SDS011;41504;53.162;6.788;2023-05-23T01:00:08;23.00;;;15.02;;
55633;SDS011;41504;53.162;6.788;2023-05-23T01:02:41;25.52;;;14.52;;
55633;SDS011;41504;53.162;6.788;2023-05-23T01:05:09;24.90;;;14.45;;
55633;SDS011;41504;53.162;6.788;2023-05-23T01:07:38;28.08;;;15.15;;
55633;SDS011;41504;53.162;6.788;2023-05-23T01:10:05;25.98;;;15.55;;
55633;SDS011;41504;53.162;6.788;2023-05-23T01:15:15;26.55;;;17.05;;
55633;SDS011;41504;53.162;6.788;2023-05-23T01:17:45;29.08;;;18.95;;
55633;SDS011;41504;53.162;6.788;2023-05-23T01:20:11;27.75;;;18.27;;
55633;SDS011;41504;53.162;6.788;2023-05-23T01:28:11;25.63;;;15.70;;
55633;SDS011;41504;53.162;6.788;2023-05-23T01:30:44;20.98;;;14.60;;
55633;SDS011;41504;53.162;6.788;2023-05-23T01:33:13;19.90;;;14.13;;
55633;SDS011;41504;53.162;6.788;2023-05-23T01:35:41;21.40;;;12.82;;
55633;SDS011;41504;53.162;6.788;2023-05-23T01:38:08;21.27;;;12.10;;
55633;SDS011;41504;53.162;6.788;2023-05-23T01:40:35;19.85;;;12.20;;
55633;SDS011;41504;53.162;6.788;2023-05-23T01:43:01;18.08;;;11.77;;
55633;SDS011;41504;53.162;6.788;2023-05-23T01:45:27;19.85;;;10.43;;
55633;SDS011;41504;53.162;6.788;2023-05-23T01:47:54;19.52;;;10.07;;
55633;SDS011;41504;53.162;6.788;2023-05-23T01:50:22;12.98;;;8.00;;
55633;SDS011;41504;53.162;6.788;2023-05-23T01:52:48;15.30;;;8.63;;
55633;SDS011;41504;53.162;6.788;2023-05-23T01:55:15;16.02;;;7.43;;
55633;SDS011;41504;53.162;6.788;2023-05-23T01:57:46;16.67;;;7.53;;
55633;SDS011;41504;53.162;6.788;2023-05-23T02:00:16;14.38;;;6.78;;
55633;SDS011;41504;53.162;6.788;2023-05-23T02:02:42;20.20;;;7.57;;
55633;SDS011;41504;53.162;6.788;2023-05-23T02:05:08;18.90;;;8.13;;
55633;SDS011;41504;53.162;6.788;2023-05-23T02:07:35;18.65;;;9.13;;
55633;SDS011;41504;53.162;6.788;2023-05-23T02:10:02;17.38;;;8.55;;
55633;SDS011;41504;53.162;6.788;2023-05-23T02:12:29;14.95;;;8.02;;
55633;SDS011;41504;53.162;6.788;2023-05-23T02:14:54;19.17;;;8.65;;
55633;SDS011;41504;53.162;6.788;2023-05-23T02:17:20;18.50;;;9.55;;
55633;SDS011;41504;53.162;6.788;2023-05-23T02:19:46;22.63;;;9.32;;
55633;SDS011;41504;53.162;6.788;2023-05-23T02:22:12;24.20;;;10.80;;
55633;SDS011;41504;53.162;6.788;2023-05-23T02:24:39;26.02;;;10.05;;
55633;SDS011;41504;53.162;6.788;2023-05-23T02:27:05;28.23;;;11.88;;
55633;SDS011;41504;53.162;6.788;2023-05-23T02:29:31;25.13;;;10.50;;
55633;SDS011;41504;53.162;6.788;2023-05-23T02:31:56;25.67;;;10.52;;
55633;SDS011;41504;53.162;6.788;2023-05-23T02:34:22;24.85;;;10.65;;
55633;SDS011;41504;53.162;6.788;2023-05-23T02:36:48;21.90;;;11.10;;
55633;SDS011;41504;53.162;6.788;2023-05-23T02:39:13;26.88;;;11.23;;
55633;SDS011;41504;53.162;6.788;2023-05-23T02:41:39;21.73;;;10.63;;
55633;SDS011;41504;53.162;6.788;2023-05-23T02:44:05;20.73;;;9.60;;
55633;SDS011;41504;53.162;6.788;2023-05-23T02:46:31;19.67;;;9.88;;
55633;SDS011;41504;53.162;6.788;2023-05-23T02:48:57;20.40;;;8.75;;
55633;SDS011;41504;53.162;6.788;2023-05-23T02:51:22;19.63;;;8.57;;
55633;SDS011;41504;53.162;6.788;2023-05-23T02:53:48;18.83;;;7.93;;
55633;SDS011;41504;53.162;6.788;2023-05-23T02:56:14;16.52;;;7.55;;
55633;SDS011;41504;53.162;6.788;2023-05-23T02:58:40;14.00;;;6.40;;
55633;SDS011;41504;53.162;6.788;2023-05-23T03:01:05;14.95;;;7.25;;
55633;SDS011;41504;53.162;6.788;2023-05-23T03:03:32;18.73;;;7.70;;
55633;SDS011;41504;53.162;6.788;2023-05-23T03:05:58;18.33;;;7.07;;
55633;SDS011;41504;53.162;6.788;2023-05-23T03:08:27;16.23;;;8.15;;
55633;SDS011;41504;53.162;6.788;2023-05-23T03:10:53;20.63;;;8.13;;
55633;SDS011;41504;53.162;6.788;2023-05-23T03:13:18;17.88;;;6.97;;
55633;SDS011;41504;53.162;6.788;2023-05-23T03:15:44;16.95;;;6.78;;
55633;SDS011;41504;53.162;6.788;2023-05-23T03:18:10;18.48;;;7.95;;
55633;SDS011;41504;53.162;6.788;2023-05-23T03:20:36;24.50;;;8.52;;
55633;SDS011;41504;53.162;6.788;2023-05-23T03:23:02;22.95;;;9.07;;
55633;SDS011;41504;53.162;6.788;2023-05-23T03:25:28;23.58;;;9.25;;
55633;SDS011;41504;53.162;6.788;2023-05-23T03:27:54;25.92;;;9.57;;
55633;SDS011;41504;53.162;6.788;2023-05-23T03:30:20;22.08;;;9.85;;
55633;SDS011;41504;53.162;6.788;2023-05-23T03:32:46;24.50;;;9.57;;
55633;SDS011;41504;53.162;6.788;2023-05-23T03:35:12;21.27;;;8.90;;
55633;SDS011;41504;53.162;6.788;2023-05-23T03:37:38;22.50;;;9.50;;
55633;SDS011;41504;53.162;6.788;2023-05-23T03:40:03;25.65;;;8.50;;
55633;SDS011;41504;53.162;6.788;2023-05-23T03:42:31;23.75;;;9.50;;
55633;SDS011;41504;53.162;6.788;2023-05-23T03:44:57;20.15;;;9.25;;
55633;SDS011;41504;53.162;6.788;2023-05-23T03:47:22;20.45;;;8.38;;
55633;SDS011;41504;53.162;6.788;2023-05-23T03:49:48;25.55;;;9.40;;
55633;SDS011;41504;53.162;6.788;2023-05-23T03:52:14;21.38;;;8.95;;
55633;SDS011;41504;53.162;6.788;2023-05-23T03:54:40;18.90;;;8.18;;
55633;SDS011;41504;53.162;6.788;2023-05-23T03:57:06;20.40;;;8.55;;
55633;SDS011;41504;53.162;6.788;2023-05-23T03:59:32;18.70;;;8.40;;
55633;SDS011;41504;53.162;6.788;2023-05-23T04:01:58;23.70;;;9.02;;
55633;SDS011;41504;53.162;6.788;2023-05-23T04:04:25;17.27;;;8.65;;
55633;SDS011;41504;53.162;6.788;2023-05-23T04:06:55;23.17;;;8.70;;
55633;SDS011;41504;53.162;6.788;2023-05-23T04:09:22;17.67;;;7.40;;
55633;SDS011;41504;53.162;6.788;2023-05-23T04:11:48;24.13;;;7.38;;
55633;SDS011;41504;53.162;6.788;2023-05-23T04:14:14;17.02;;;8.20;;
55633;SDS011;41504;53.162;6.788;2023-05-23T04:16:39;18.02;;;7.10;;
55633;SDS011;41504;53.162;6.788;2023-05-23T04:19:06;20.65;;;7.82;;
55633;SDS011;41504;53.162;6.788;2023-05-23T04:21:32;20.35;;;7.82;;
55633;SDS011;41504;53.162;6.788;2023-05-23T04:23:59;21.02;;;7.57;;
55633;SDS011;41504;53.162;6.788;2023-05-23T04:26:25;20.80;;;7.80;;
55633;SDS011;41504;53.162;6.788;2023-05-23T04:28:51;14.15;;;6.55;;
55633;SDS011;41504;53.162;6.788;2023-05-23T04:31:18;19.17;;;7.03;;
55633;SDS011;41504;53.162;6.788;2023-05-23T04:33:46;20.58;;;6.95;;
55633;SDS011;41504;53.162;6.788;2023-05-23T04:36:13;18.85;;;6.60;;
55633;SDS011;41504;53.162;6.788;2023-05-23T04:38:38;15.27;;;6.68;;
55633;SDS011;41504;53.162;6.788;2023-05-23T04:41:08;17.60;;;6.38;;
55633;SDS011;41504;53.162;6.788;2023-05-23T04:43:36;16.45;;;5.93;;
55633;SDS011;41504;53.162;6.788;2023-05-23T04:46:07;17.90;;;6.15;;
55633;SDS011;41504;53.162;6.788;2023-05-23T04:48:34;13.35;;;5.18;;
55633;SDS011;41504;53.162;6.788;2023-05-23T04:51:01;13.73;;;5.15;;
55633;SDS011;41504;53.162;6.788;2023-05-23T04:53:33;15.70;;;5.28;;
55633;SDS011;41504;53.162;6.788;2023-05-23T04:55:59;16.98;;;5.03;;
55633;SDS011;41504;53.162;6.788;2023-05-23T04:58:25;16.58;;;5.00;;
55633;SDS011;41504;53.162;6.788;2023-05-23T05:00:51;17.05;;;5.40;;
55633;SDS011;41504;53.162;6.788;2023-05-23T05:03:17;18.05;;;5.45;;
55633;SDS011;41504;53.162;6.788;2023-05-23T05:05:42;15.05;;;5.20;;
55633;SDS011;41504;53.162;6.788;2023-05-23T05:08:08;17.33;;;6.00;;
55633;SDS011;41504;53.162;6.788;2023-05-23T05:10:34;13.90;;;5.35;;
55633;SDS011;41504;53.162;6.788;2023-05-23T05:12:59;17.17;;;5.88;;
55633;SDS011;41504;53.162;6.788;2023-05-23T05:15:25;20.20;;;7.55;;
55633;SDS011;41504;53.162;6.788;2023-05-23T05:17:51;18.73;;;7.72;;
55633;SDS011;41504;53.162;6.788;2023-05-23T05:20:16;22.50;;;8.27;;
55633;SDS011;41504;53.162;6.788;2023-05-23T05:22:42;17.33;;;8.13;;
55633;SDS011;41504;53.162;6.788;2023-05-23T05:25:08;17.90;;;7.85;;
55633;SDS011;41504;53.162;6.788;2023-05-23T05:27:35;18.35;;;8.13;;
55633;SDS011;41504;53.162;6.788;2023-05-23T05:30:04;16.77;;;8.18;;
55633;SDS011;41504;53.162;6.788;2023-05-23T05:32:34;20.10;;;8.70;;
55633;SDS011;41504;53.162;6.788;2023-05-23T05:35:00;19.13;;;9.07;;
55633;SDS011;41504;53.162;6.788;2023-05-23T05:37:26;19.48;;;9.02;;
55633;SDS011;41504;53.162;6.788;2023-05-23T05:39:52;21.85;;;9.50;;
55633;SDS011;41504;53.162;6.788;2023-05-23T05:42:19;19.10;;;8.98;;
55633;SDS011;41504;53.162;6.788;2023-05-23T05:44:48;18.83;;;9.45;;
55633;SDS011;41504;53.162;6.788;2023-05-23T05:47:14;19.50;;;9.57;;
55633;SDS011;41504;53.162;6.788;2023-05-23T05:49:40;20.20;;;8.85;;
55633;SDS011;41504;53.162;6.788;2023-05-23T05:52:06;20.40;;;8.63;;
55633;SDS011;41504;53.162;6.788;2023-05-23T05:54:32;16.63;;;7.43;;
55633;SDS011;41504;53.162;6.788;2023-05-23T05:56:58;14.63;;;7.55;;
55633;SDS011;41504;53.162;6.788;2023-05-23T05:59:24;18.48;;;7.70;;
55633;SDS011;41504;53.162;6.788;2023-05-23T06:01:51;19.92;;;7.75;;
55633;SDS011;41504;53.162;6.788;2023-05-23T06:04:17;15.75;;;6.57;;
55633;SDS011;41504;53.162;6.788;2023-05-23T06:06:43;16.52;;;7.50;;
55633;SDS011;41504;53.162;6.788;2023-05-23T06:09:09;18.05;;;6.95;;
55633;SDS011;41504;53.162;6.788;2023-05-23T06:11:35;13.45;;;6.18;;
55633;SDS011;41504;53.162;6.788;2023-05-23T06:14:04;17.38;;;7.45;;
55633;SDS011;41504;53.162;6.788;2023-05-23T06:16:30;14.95;;;5.80;;
55633;SDS011;41504;53.162;6.788;2023-05-23T06:18:56;15.50;;;5.88;;
55633;SDS011;41504;53.162;6.788;2023-05-23T06:21:22;15.90;;;6.25;;
55633;SDS011;41504;53.162;6.788;2023-05-23T06:23:47;12.15;;;5.03;;
55633;SDS011;41504;53.162;6.788;2023-05-23T06:26:13;15.80;;;5.30;;
55633;SDS011;41504;53.162;6.788;2023-05-23T06:28:39;15.02;;;5.55;;
55633;SDS011;41504;53.162;6.788;2023-05-23T06:31:05;14.55;;;5.68;;
55633;SDS011;41504;53.162;6.788;2023-05-23T06:33:31;13.30;;;5.38;;
55633;SDS011;41504;53.162;6.788;2023-05-23T06:35:57;12.63;;;5.05;;
55633;SDS011;41504;53.162;6.788;2023-05-23T06:38:25;13.98;;;5.35;;
55633;SDS011;41504;53.162;6.788;2023-05-23T06:40:52;11.48;;;4.85;;
55633;SDS011;41504;53.162;6.788;2023-05-23T06:43:17;15.45;;;5.25;;
55633;SDS011;41504;53.162;6.788;2023-05-23T06:45:44;16.92;;;5.38;;
55633;SDS011;41504;53.162;6.788;2023-05-23T06:48:11;15.60;;;4.72;;
55633;SDS011;41504;53.162;6.788;2023-05-23T06:50:37;17.23;;;5.25;;
55633;SDS011;41504;53.162;6.788;2023-05-23T06:53:04;13.02;;;4.65;;
55633;SDS011;41504;53.162;6.788;2023-05-23T06:55:30;14.82;;;4.75;;
55633;SDS011;41504;53.162;6.788;2023-05-23T06:57:58;12.98;;;4.57;;
55633;SDS011;41504;53.162;6.788;2023-05-23T07:00:24;22.65;;;5.07;;
55633;SDS011;41504;53.162;6.788;2023-05-23T07:02:50;17.75;;;4.95;;
55633;SDS011;41504;53.162;6.788;2023-05-23T07:05:16;14.60;;;4.90;;
55633;SDS011;41504;53.162;6.788;2023-05-23T07:07:42;16.63;;;4.93;;
55633;SDS011;41504;53.162;6.788;2023-05-23T07:10:08;15.73;;;4.60;;
55633;SDS011;41504;53.162;6.788;2023-05-23T07:12:43;25.88;;;5.93;;
55633;SDS011;41504;53.162;6.788;2023-05-23T07:15:32;16.80;;;4.68;;
55633;SDS011;41504;53.162;6.788;2023-05-23T07:17:58;15.70;;;5.00;;
55633;SDS011;41504;53.162;6.788;2023-05-23T07:20:24;18.05;;;5.38;;
55633;SDS011;41504;53.162;6.788;2023-05-23T07:22:50;21.13;;;5.15;;
55633;SDS011;41504;53.162;6.788;2023-05-23T07:25:17;17.50;;;5.00;;
55633;SDS011;41504;53.162;6.788;2023-05-23T07:27:43;19.30;;;5.63;;
55633;SDS011;41504;53.162;6.788;2023-05-23T07:30:09;17.08;;;4.95;;
55633;SDS011;41504;53.162;6.788;2023-05-23T07:32:35;15.98;;;4.43;;
55633;SDS011;41504;53.162;6.788;2023-05-23T07:35:01;18.40;;;5.18;;
55633;SDS011;41504;53.162;6.788;2023-05-23T07:37:27;17.35;;;4.60;;
55633;SDS011;41504;53.162;6.788;2023-05-23T07:39:53;16.13;;;4.03;;
55633;SDS011;41504;53.162;6.788;2023-05-23T07:42:18;16.38;;;4.40;;
55633;SDS011;41504;53.162;6.788;2023-05-23T07:44:44;18.48;;;4.90;;
55633;SDS011;41504;53.162;6.788;2023-05-23T07:47:10;17.67;;;4.15;;
55633;SDS011;41504;53.162;6.788;2023-05-23T07:49:36;16.27;;;4.45;;
55633;SDS011;41504;53.162;6.788;2023-05-23T07:52:02;18.33;;;4.95;;
55633;SDS011;41504;53.162;6.788;2023-05-23T07:54:27;16.40;;;5.15;;
55633;SDS011;41504;53.162;6.788;2023-05-23T07:56:54;15.73;;;4.85;;
55633;SDS011;41504;53.162;6.788;2023-05-23T07:59:20;16.70;;;4.72;;
55633;SDS011;41504;53.162;6.788;2023-05-23T08:01:49;19.10;;;4.88;;
55633;SDS011;41504;53.162;6.788;2023-05-23T08:04:18;18.70;;;4.68;;
55633;SDS011;41504;53.162;6.788;2023-05-23T08:06:47;19.50;;;4.88;;
55633;SDS011;41504;53.162;6.788;2023-05-23T08:09:20;17.55;;;4.82;;
55633;SDS011;41504;53.162;6.788;2023-05-23T08:11:47;17.08;;;4.90;;
55633;SDS011;41504;53.162;6.788;2023-05-23T08:14:15;17.88;;;4.93;;
55633;SDS011;41504;53.162;6.788;2023-05-23T08:16:41;15.27;;;4.03;;
55633;SDS011;41504;53.162;6.788;2023-05-23T08:19:07;15.25;;;4.10;;
55633;SDS011;41504;53.162;6.788;2023-05-23T08:21:34;14.05;;;4.20;;
55633;SDS011;41504;53.162;6.788;2023-05-23T08:24:00;16.77;;;4.82;;
55633;SDS011;41504;53.162;6.788;2023-05-23T08:26:29;19.55;;;5.15;;
55633;SDS011;41504;53.162;6.788;2023-05-23T08:28:59;18.25;;;4.72;;
55633;SDS011;41504;53.162;6.788;2023-05-23T08:31:28;15.13;;;4.07;;
55633;SDS011;41504;53.162;6.788;2023-05-23T08:34:03;16.60;;;4.65;;
55633;SDS011;41504;53.162;6.788;2023-05-23T08:36:29;19.60;;;5.32;;
55633;SDS011;41504;53.162;6.788;2023-05-23T08:39:01;16.00;;;3.97;;
55633;SDS011;41504;53.162;6.788;2023-05-23T08:41:28;14.95;;;4.53;;
55633;SDS011;41504;53.162;6.788;2023-05-23T08:43:55;14.45;;;4.38;;
55633;SDS011;41504;53.162;6.788;2023-05-23T08:46:22;15.98;;;4.60;;
55633;SDS011;41504;53.162;6.788;2023-05-23T08:48:52;12.65;;;3.65;;
55633;SDS011;41504;53.162;6.788;2023-05-23T08:51:26;16.40;;;4.05;;
55633;SDS011;41504;53.162;6.788;2023-05-23T08:53:52;15.40;;;4.32;;
55633;SDS011;41504;53.162;6.788;2023-05-23T08:56:20;18.50;;;4.10;;
55633;SDS011;41504;53.162;6.788;2023-05-23T08:58:48;19.35;;;4.97;;
55633;SDS011;41504;53.162;6.788;2023-05-23T09:01:20;18.38;;;4.50;;
55633;SDS011;41504;53.162;6.788;2023-05-23T09:03:47;18.58;;;5.25;;
55633;SDS011;41504;53.162;6.788;2023-05-23T09:06:15;16.88;;;4.50;;
55633;SDS011;41504;53.162;6.788;2023-05-23T09:08:45;17.25;;;4.50;;
55633;SDS011;41504;53.162;6.788;2023-05-23T09:11:12;16.98;;;4.28;;
55633;SDS011;41504;53.162;6.788;2023-05-23T09:13:41;18.25;;;4.32;;
55633;SDS011;41504;53.162;6.788;2023-05-23T09:16:10;13.40;;;4.07;;
55633;SDS011;41504;53.162;6.788;2023-05-23T09:18:37;16.30;;;3.92;;
55633;SDS011;41504;53.162;6.788;2023-05-23T09:21:04;18.50;;;4.78;;
55633;SDS011;41504;53.162;6.788;2023-05-23T09:23:32;24.00;;;5.00;;
55633;SDS011;41504;53.162;6.788;2023-05-23T09:26:02;14.38;;;4.07;;
55633;SDS011;41504;53.162;6.788;2023-05-23T09:28:32;17.35;;;4.40;;
55633;SDS011;41504;53.162;6.788;2023-05-23T09:31:02;15.65;;;4.32;;
55633;SDS011;41504;53.162;6.788;2023-05-23T09:33:35;12.95;;;3.90;;
55633;SDS011;41504;53.162;6.788;2023-05-23T09:36:04;19.05;;;4.80;;
55633;SDS011;41504;53.162;6.788;2023-05-23T09:38:33;17.52;;;4.45;;
55633;SDS011;41504;53.162;6.788;2023-05-23T09:41:03;16.40;;;5.05;;
55633;SDS011;41504;53.162;6.788;2023-05-23T09:43:29;14.52;;;4.28;;
55633;SDS011;41504;53.162;6.788;2023-05-23T09:46:11;15.00;;;3.83;;
55633;SDS011;41504;53.162;6.788;2023-05-23T09:48:37;17.88;;;4.63;;
55633;SDS011;41504;53.162;6.788;2023-05-23T09:51:08;15.93;;;4.22;;
55633;SDS011;41504;53.162;6.788;2023-05-23T09:53:34;18.30;;;4.47;;
55633;SDS011;41504;53.162;6.788;2023-05-23T09:56:09;16.75;;;4.13;;
55633;SDS011;41504;53.162;6.788;2023-05-23T09:58:35;17.00;;;4.35;;
55633;SDS011;41504;53.162;6.788;2023-05-23T10:01:03;18.33;;;4.72;;
55633;SDS011;41504;53.162;6.788;2023-05-23T10:03:36;15.95;;;4.18;;
55633;SDS011;41504;53.162;6.788;2023-05-23T10:09:00;18.50;;;4.15;;
55633;SDS011;41504;53.162;6.788;2023-05-23T10:14:08;13.93;;;3.92;;
55633;SDS011;41504;53.162;6.788;2023-05-23T10:19:26;13.75;;;3.90;;
55633;SDS011;41504;53.162;6.788;2023-05-23T10:22:00;14.02;;;3.75;;
55633;SDS011;41504;53.162;6.788;2023-05-23T10:24:28;15.20;;;4.00;;
55633;SDS011;41504;53.162;6.788;2023-05-23T10:27:13;13.40;;;3.70;;
55633;SDS011;41504;53.162;6.788;2023-05-23T10:29:58;13.18;;;3.97;;
55633;SDS011;41504;53.162;6.788;2023-05-23T10:32:30;16.23;;;4.47;;
55633;SDS011;41504;53.162;6.788;2023-05-23T10:35:13;16.23;;;4.40;;
55633;SDS011;41504;53.162;6.788;2023-05-23T10:43:48;13.85;;;3.40;;
55633;SDS011;41504;53.162;6.788;2023-05-23T10:50:35;14.20;;;3.60;;
55633;SDS011;41504;53.162;6.788;2023-05-23T10:53:10;16.45;;;3.88;;
55633;SDS011;41504;53.162;6.788;2023-05-23T10:55:43;16.65;;;3.85;;
55633;SDS011;41504;53.162;6.788;2023-05-23T10:58:17;18.20;;;4.03;;
55633;SDS011;41504;53.162;6.788;2023-05-23T11:00:50;13.82;;;3.45;;
55633;SDS011;41504;53.162;6.788;2023-05-23T11:03:52;14.15;;;3.80;;
55633;SDS011;41504;53.162;6.788;2023-05-23T11:09:13;18.00;;;4.40;;
55633;SDS011;41504;53.162;6.788;2023-05-23T11:14:19;13.45;;;3.47;;
55633;SDS011;41504;53.162;6.788;2023-05-23T11:20:17;12.52;;;3.33;;
55633;SDS011;41504;53.162;6.788;2023-05-23T11:23:01;10.75;;;2.88;;
55633;SDS011;41504;53.162;6.788;2023-05-23T11:25:41;11.85;;;3.15;;
55633;SDS011;41504;53.162;6.788;2023-05-23T11:28:08;14.68;;;3.40;;
55633;SDS011;41504;53.162;6.788;2023-05-23T11:30:35;15.38;;;3.33;;
55633;SDS011;41504;53.162;6.788;2023-05-23T11:33:05;13.82;;;3.75;;
55633;SDS011;41504;53.162;6.788;2023-05-23T11:35:37;17.42;;;3.58;;
55633;SDS011;41504;53.162;6.788;2023-05-23T11:38:07;13.63;;;3.58;;
55633;SDS011;41504;53.162;6.788;2023-05-23T11:40:40;20.15;;;3.95;;
55633;SDS011;41504;53.162;6.788;2023-05-23T11:43:16;13.75;;;3.22;;
55633;SDS011;41504;53.162;6.788;2023-05-23T11:45:43;16.15;;;3.95;;
55633;SDS011;41504;53.162;6.788;2023-05-23T11:48:13;17.42;;;3.08;;
55633;SDS011;41504;53.162;6.788;2023-05-23T11:53:13;15.73;;;3.45;;
55633;SDS011;41504;53.162;6.788;2023-05-23T11:55:52;12.18;;;3.22;;
55633;SDS011;41504;53.162;6.788;2023-05-23T11:58:35;11.48;;;3.15;;
55633;SDS011;41504;53.162;6.788;2023-05-23T12:01:06;9.30;;;3.50;;
55633;SDS011;41504;53.162;6.788;2023-05-23T12:03:48;13.70;;;3.55;;
55633;SDS011;41504;53.162;6.788;2023-05-23T12:06:19;12.70;;;3.30;;
55633;SDS011;41504;53.162;6.788;2023-05-23T12:08:46;11.93;;;3.22;;
55633;SDS011;41504;53.162;6.788;2023-05-23T12:11:12;15.70;;;3.00;;
55633;SDS011;41504;53.162;6.788;2023-05-23T12:13:39;18.77;;;4.65;;
55633;SDS011;41504;53.162;6.788;2023-05-23T12:16:06;30.00;;;12.48;;
55633;SDS011;41504;53.162;6.788;2023-05-23T12:18:32;13.50;;;3.47;;
55633;SDS011;41504;53.162;6.788;2023-05-23T12:20:58;14.57;;;3.55;;
55633;SDS011;41504;53.162;6.788;2023-05-23T12:23:25;14.68;;;3.50;;
55633;SDS011;41504;53.162;6.788;2023-05-23T12:25:52;16.30;;;3.78;;
55633;SDS011;41504;53.162;6.788;2023-05-23T12:28:19;11.68;;;3.35;;
55633;SDS011;41504;53.162;6.788;2023-05-23T12:30:46;13.57;;;3.42;;
55633;SDS011;41504;53.162;6.788;2023-05-23T12:33:13;13.10;;;3.40;;
55633;SDS011;41504;53.162;6.788;2023-05-23T12:35:42;13.50;;;3.13;;
55633;SDS011;41504;53.162;6.788;2023-05-23T12:38:13;10.95;;;3.33;;
55633;SDS011;41504;53.162;6.788;2023-05-23T12:40:44;16.55;;;3.63;;
55633;SDS011;41504;53.162;6.788;2023-05-23T12:43:09;11.38;;;3.15;;
55633;SDS011;41504;53.162;6.788;2023-05-23T12:45:36;12.48;;;3.10;;
55633;SDS011;41504;53.162;6.788;2023-05-23T12:48:02;13.88;;;3.40;;
55633;SDS011;41504;53.162;6.788;2023-05-23T12:50:32;13.38;;;3.25;;
55633;SDS011;41504;53.162;6.788;2023-05-23T12:52:58;14.55;;;3.50;;
55633;SDS011;41504;53.162;6.788;2023-05-23T12:55:26;15.82;;;3.22;;
55633;SDS011;41504;53.162;6.788;2023-05-23T12:57:53;11.57;;;3.30;;
55633;SDS011;41504;53.162;6.788;2023-05-23T13:00:22;10.70;;;3.33;;
55633;SDS011;41504;53.162;6.788;2023-05-23T13:02:51;12.32;;;3.03;;
55633;SDS011;41504;53.162;6.788;2023-05-23T13:05:29;13.35;;;3.08;;
55633;SDS011;41504;53.162;6.788;2023-05-23T13:07:56;10.50;;;3.03;;
55633;SDS011;41504;53.162;6.788;2023-05-23T13:10:23;12.77;;;3.40;;
55633;SDS011;41504;53.162;6.788;2023-05-23T13:12:52;12.57;;;3.10;;
55633;SDS011;41504;53.162;6.788;2023-05-23T13:15:18;11.05;;;2.80;;
55633;SDS011;41504;53.162;6.788;2023-05-23T13:17:44;12.30;;;2.92;;
55633;SDS011;41504;53.162;6.788;2023-05-23T13:20:11;11.38;;;2.95;;
55633;SDS011;41504;53.162;6.788;2023-05-23T13:22:38;11.65;;;2.88;;
55633;SDS011;41504;53.162;6.788;2023-05-23T13:25:05;12.20;;;2.88;;
55633;SDS011;41504;53.162;6.788;2023-05-23T13:27:32;12.55;;;3.10;;
55633;SDS011;41504;53.162;6.788;2023-05-23T13:29:58;14.50;;;3.38;;
55633;SDS011;41504;53.162;6.788;2023-05-23T13:32:24;12.20;;;3.35;;
55633;SDS011;41504;53.162;6.788;2023-05-23T13:34:51;11.45;;;2.65;;
55633;SDS011;41504;53.162;6.788;2023-05-23T13:37:17;9.00;;;2.67;;
55633;SDS011;41504;53.162;6.788;2023-05-23T13:39:42;13.20;;;3.22;;
55633;SDS011;41504;53.162;6.788;2023-05-23T13:42:08;8.82;;;2.70;;
55633;SDS011;41504;53.162;6.788;2023-05-23T13:44:35;9.80;;;2.70;;
55633;SDS011;41504;53.162;6.788;2023-05-23T13:47:11;13.25;;;3.22;;
55633;SDS011;41504;53.162;6.788;2023-05-23T13:49:38;13.63;;;3.08;;
55633;SDS011;41504;53.162;6.788;2023-05-23T13:52:04;11.60;;;2.97;;
55633;SDS011;41504;53.162;6.788;2023-05-23T13:54:30;13.77;;;2.85;;
55633;SDS011;41504;53.162;6.788;2023-05-23T13:56:56;10.23;;;2.67;;
55633;SDS011;41504;53.162;6.788;2023-05-23T13:59:23;10.93;;;2.80;;
55633;SDS011;41504;53.162;6.788;2023-05-23T14:01:51;9.77;;;2.67;;
55633;SDS011;41504;53.162;6.788;2023-05-23T14:04:17;9.38;;;2.38;;
55633;SDS011;41504;53.162;6.788;2023-05-23T14:06:47;9.38;;;2.30;;
55633;SDS011;41504;53.162;6.788;2023-05-23T14:09:14;9.07;;;2.47;;
55633;SDS011;41504;53.162;6.788;2023-05-23T14:11:40;16.55;;;3.85;;
55633;SDS011;41504;53.162;6.788;2023-05-23T14:14:06;13.57;;;3.00;;
55633;SDS011;41504;53.162;6.788;2023-05-23T14:16:35;12.38;;;2.83;;
55633;SDS011;41504;53.162;6.788;2023-05-23T14:19:00;9.25;;;2.63;;
55633;SDS011;41504;53.162;6.788;2023-05-23T14:21:26;54.08;;;6.18;;
55633;SDS011;41504;53.162;6.788;2023-05-23T14:23:52;29.30;;;4.63;;
55633;SDS011;41504;53.162;6.788;2023-05-23T14:26:21;12.25;;;3.15;;
55633;SDS011;41504;53.162;6.788;2023-05-23T14:28:47;11.27;;;3.05;;
55633;SDS011;41504;53.162;6.788;2023-05-23T14:31:13;12.48;;;2.85;;
55633;SDS011;41504;53.162;6.788;2023-05-23T14:33:39;15.18;;;3.28;;
55633;SDS011;41504;53.162;6.788;2023-05-23T14:36:05;12.80;;;3.00;;
55633;SDS011;41504;53.162;6.788;2023-05-23T14:38:31;13.88;;;3.42;;
55633;SDS011;41504;53.162;6.788;2023-05-23T14:40:56;9.82;;;2.90;;
55633;SDS011;41504;53.162;6.788;2023-05-23T14:43:24;14.95;;;3.70;;
55633;SDS011;41504;53.162;6.788;2023-05-23T14:45:49;14.38;;;2.88;;
55633;SDS011;41504;53.162;6.788;2023-05-23T14:48:21;13.85;;;2.75;;
55633;SDS011;41504;53.162;6.788;2023-05-23T14:50:50;13.27;;;3.00;;
55633;SDS011;41504;53.162;6.788;2023-05-23T14:53:16;14.18;;;3.60;;
55633;SDS011;41504;53.162;6.788;2023-05-23T14:55:45;11.70;;;2.60;;
55633;SDS011;41504;53.162;6.788;2023-05-23T14:58:14;12.68;;;2.83;;
55633;SDS011;41504;53.162;6.788;2023-05-23T15:00:40;11.65;;;2.58;;
55633;SDS011;41504;53.162;6.788;2023-05-23T15:03:06;13.88;;;2.63;;
55633;SDS011;41504;53.162;6.788;2023-05-23T15:05:32;11.93;;;2.80;;
55633;SDS011;41504;53.162;6.788;2023-05-23T15:07:58;11.63;;;2.75;;
55633;SDS011;41504;53.162;6.788;2023-05-23T15:10:24;13.00;;;3.28;;
55633;SDS011;41504;53.162;6.788;2023-05-23T15:12:50;13.50;;;4.05;;
55633;SDS011;41504;53.162;6.788;2023-05-23T15:15:16;14.52;;;3.63;;